createdAt,value
2023-10-03T00:00:26.406Z,98.67
2023-10-03T00:02:56.788Z,98.53
2023-10-03T00:05:25.194Z,98.47
2023-10-03T00:07:55.866Z,99.00
2023-10-03T00:10:23.386Z,98.96
2023-10-03T00:12:52.422Z,99.00
2023-10-03T00:15:22.271Z,99.18
2023-10-03T00:17:49.311Z,98.95
2023-10-03T00:20:17.582Z,99.04
2023-10-03T00:22:45.760Z,99.19
2023-10-03T00:25:20.632Z,99.37
2023-10-03T00:27:52.563Z,99.40
2023-10-03T00:30:20.797Z,99.68
2023-10-03T00:32:54.156Z,99.92
2023-10-03T00:35:21.776Z,100.00
2023-10-03T00:37:51.998Z,100.00
2023-10-03T00:40:23.107Z,100.00
2023-10-03T00:42:50.581Z,100.00
2023-10-03T00:45:22.708Z,100.00
2023-10-03T00:47:50.867Z,100.00
2023-10-03T00:50:20.809Z,100.00
2023-10-03T00:52:56.782Z,100.00
2023-10-03T00:55:28.206Z,100.00
2023-10-03T00:58:08.425Z,100.00
2023-10-03T01:00:42.965Z,100.00
2023-10-03T01:03:33.190Z,100.00
2023-10-03T01:06:11.710Z,100.00
2023-10-03T01:08:47.576Z,100.00
2023-10-03T01:11:20.270Z,100.00
2023-10-03T01:14:00.038Z,100.00
2023-10-03T01:16:33.356Z,100.00
2023-10-03T01:19:11.187Z,100.00
2023-10-03T01:21:39.864Z,100.00
2023-10-03T01:24:07.646Z,100.00
2023-10-03T01:26:35.192Z,100.00
2023-10-03T01:29:04.094Z,100.00
2023-10-03T01:31:31.835Z,100.00
2023-10-03T01:33:58.556Z,100.00
2023-10-03T01:36:28.008Z,100.00
2023-10-03T01:38:54.684Z,100.00
2023-10-03T01:41:21.529Z,100.00
2023-10-03T01:43:48.200Z,100.00
2023-10-03T01:46:15.069Z,100.00
2023-10-03T01:48:43.730Z,100.00
2023-10-03T01:51:10.921Z,100.00
2023-10-03T01:53:41.124Z,99.94
2023-10-03T01:56:08.554Z,99.95
2023-10-03T01:58:35.678Z,99.64
2023-10-03T02:01:02.555Z,99.10
2023-10-03T02:03:32.365Z,99.13
2023-10-03T02:05:59.096Z,98.86
2023-10-03T02:08:27.121Z,99.11
2023-10-03T02:10:54.568Z,98.81
2023-10-03T02:13:24.562Z,99.20
2023-10-03T02:15:54.303Z,99.03
2023-10-03T02:18:22.712Z,99.19
2023-10-03T02:20:54.844Z,99.51
2023-10-03T02:23:25.131Z,99.89
2023-10-03T02:25:56.687Z,99.71
2023-10-03T02:28:30.095Z,99.57
2023-10-03T02:30:58.700Z,99.48
2023-10-03T02:33:25.688Z,100.00
2023-10-03T02:35:52.680Z,99.60
2023-10-03T02:38:26.521Z,99.67
2023-10-03T02:41:03.185Z,99.67
2023-10-03T02:43:35.403Z,99.72
2023-10-03T02:46:08.438Z,99.54
2023-10-03T02:48:37.070Z,99.19
2023-10-03T02:51:04.153Z,99.22
2023-10-03T02:53:32.369Z,99.30
2023-10-03T02:56:00.071Z,98.62
2023-10-03T02:58:26.762Z,98.87
2023-10-03T03:00:57.446Z,98.75
2023-10-03T03:03:31.497Z,99.15
2023-10-03T03:06:00.352Z,99.38
2023-10-03T03:08:30.258Z,98.72
2023-10-03T03:10:58.964Z,98.76
2023-10-03T03:13:30.905Z,98.65
2023-10-03T03:16:01.408Z,98.21
2023-10-03T03:18:33.989Z,98.53
2023-10-03T03:21:03.140Z,97.98
2023-10-03T03:23:36.330Z,98.62
2023-10-03T03:26:18.607Z,98.14
2023-10-03T03:28:51.849Z,98.01
2023-10-03T03:31:27.462Z,98.32
2023-10-03T03:33:59.601Z,98.36
2023-10-03T03:36:36.978Z,98.20
2023-10-03T03:39:15.932Z,97.67
2023-10-03T03:41:44.073Z,97.59
2023-10-03T03:44:14.250Z,97.77
2023-10-03T03:46:42.248Z,97.72
2023-10-03T03:49:21.734Z,97.60
2023-10-03T03:51:50.628Z,97.40
2023-10-03T03:54:17.924Z,97.52
2023-10-03T03:56:44.530Z,97.18
2023-10-03T03:59:12.709Z,97.43
2023-10-03T04:01:39.749Z,97.54
2023-10-03T04:04:09.399Z,97.66
2023-10-03T04:06:37.206Z,96.87
2023-10-03T04:09:09.314Z,97.16
2023-10-03T04:11:37.550Z,97.04
2023-10-03T04:14:07.060Z,96.85
2023-10-03T04:16:41.090Z,96.95
2023-10-03T04:19:10.060Z,96.68
2023-10-03T04:21:37.769Z,96.38
2023-10-03T04:24:06.798Z,96.42
2023-10-03T04:26:35.587Z,96.45
2023-10-03T04:29:03.106Z,96.82
2023-10-03T04:31:29.896Z,96.33
2023-10-03T04:33:57.797Z,95.80
2023-10-03T04:36:27.125Z,96.29
2023-10-03T04:38:54.724Z,95.98
2023-10-03T04:41:22.885Z,95.39
2023-10-03T04:43:51.455Z,95.91
2023-10-03T04:46:18.480Z,94.97
2023-10-03T04:48:45.262Z,94.87
2023-10-03T04:51:15.519Z,95.19
2023-10-03T04:53:42.213Z,94.48
2023-10-03T04:56:10.476Z,93.59
2023-10-03T04:58:37.235Z,93.13
2023-10-03T05:01:04.280Z,92.98
2023-10-03T05:03:32.002Z,92.49
2023-10-03T05:05:58.844Z,92.43
2023-10-03T05:08:26.409Z,92.21
2023-10-03T05:10:55.929Z,91.97
2023-10-03T05:13:23.059Z,91.78
2023-10-03T05:15:49.825Z,91.05
2023-10-03T05:18:17.350Z,90.83
2023-10-03T05:20:44.322Z,90.14
2023-10-03T05:23:11.707Z,90.60
2023-10-03T05:25:39.142Z,90.50
2023-10-03T05:28:06.758Z,90.09
2023-10-03T05:30:36.398Z,90.61
